Cincinnati, OH

4:49 PM EST en Noviembre 27, 2014 (GMT -0500)
Newport Aquarium | Change Station
CLOSE
Current Station
Estación meteorológica personal
Location: Newport, KY
Altura: 499 ft
Estaciones meteorológicas cercanas

Alt 499 ft 39.09 °N, 84.50 °W | Updated 5 minutes ago

Nublado
Nublado
33.7 ° F
Sensación térmica 34 ° F
N
2.0
Viento Variable Viento desde Sur
Gusts 2.0 mph

Hoy
Alta -- | Baja -- ° F
--% Posibilidad de precipitaciones
Ayer
Alta -- | Baja -- ° F
Precip. -- pul
7:34 AM 5:16 PM
Creciente, 33% visible
Presión 30.35 pul
Visibilidad 7.0 Millas
Nubes Muy nublado 2500 ft
Nublado 3300 ft
Vientos helados 34 ° F
Punto de rocío 23 ° F
Humedad 65%
Precipitaciones 0.00 pul
Espesor de la nieve No disponible.
UV 0 de una escala de 12
Polen .10 de una escala de 12
Calidad del aire No disponible.
Flu Activity No disponible.
METAR KLUK 272053Z 28010KT 7SM BKN025 OVC033 00/M04 A3033 RMK AO2 SNB07E23 SLP276 P0000 60000 T00001044 53011

More Conditions Fewer Conditions

Presión 30.35 pul
Visibilidad 7.0 Millas
Nubes Muy nublado 2500 ft
Nublado 3300 ft
Vientos helados 34 ° F
Punto de rocío 23 ° F
Humedad 65%
Precipitaciones 0.00 pul
Espesor de la nieve No disponible.
UV 0 de una escala de 12
Polen .10 de una escala de 12
Calidad del aire No disponible.
Flu Activity No disponible.
METAR KLUK 272053Z 28010KT 7SM BKN025 OVC033 00/M04 A3033 RMK AO2 SNB07E23 SLP276 P0000 60000 T00001044 53011

More Conditions Fewer Conditions

10-Day Weather Forecast

Almanac

Astronomía

Nov. 27, 2014 Salida Puesta
Hora real
Crepúsculo civil
Crepúsculo náutico
Crepúsculo astronómico
Luna
Horas de luz
Horas de luz
Tomorrow will be .
, % of the Moon is Illuminated

Extremos de hoy

Máximos del estado Bajos del estado

Community

WunderPhotos

Upload Photos

1,774,115 ¡fotos cargadas!

WunderBlogs® & News

Nearby

Calidad del aire

  Calidad del aire Índice AQ Contaminante
Not available.

Grosos de nieve

Estación Profundido Altura

Actividad de terremotos

Ciudad Distance Mag. Tiempo y dato
Magnitud mínima muestra es 2,5.

Temperaturas de aguas costeras

Lugar Temperatura

Estaciones meteorológicas cercanas